Pagrindinis puslapis
METAR-TAF:

METAR-TAF

Oro uostai :

Erbilis, Irakas

platuma: 36-14-15N, ilguma: 43-57-47E, Aukštis: 415 m

Dabartinis oras

Ataskaita buvo paskelbta 1 valandą ir 43 minutes, ne 03:00 UTC
Temperatūra 8°C
Drėgmė 87%
Slėgis 1021 hPa
Matomumas: 7000 m
Su prošvaistėmis ne aukštis 2500 ft
Apsiniaukę ne aukštis 6000 ft
lietus

METAR: ORER 100300Z 7000 -RA BKN025 OVC060 08/06 Q1021 NOSIG

Laikas: 07:43 (04:43 UTC)

Prognozė

Ataskaita buvo paskelbta 5 valandos ir 43 minutes, ne 23:00 UTC
Prognozė galioja nuo 10 metu 00 UTC su 10 metu 24 UTC
Vėjas 10 kt iš Rytų/Pietryčių
Matomumas: 8000 m
Su prošvaistėmis ne aukštis 3000 ft
Apsiniaukę ne aukštis 9000 ft
lietus
Laikinai
nuo 10 metu 00 UTC su 10 metu 06 UTC
Mažai debesys ne aukštis 2500 ft, Liūtiniai kamuoliniai debesys.

TAF: ORER 092300Z 1000/1024 12010KT 8000 -RA BKN030 OVC090 TEMPO 1000/1006 -TSSHRA FEW025CB

Orai ataskaitas ir orų prognozės (METAR, TAF).

turimą stotys yra geltonos ir raudonos taškus žemėlapyje.

Perkelti pele per norėdami pamatyti stoties vardą.

Tada spustelėkite, norėdami matyti oro stebėjimo ir prognozės.

Norėdami pakeisti žemėlapį: spustelėkite ant žalios mygtukų su juodo kryžiaus žemyn,; žalią mygtuką su brūkšneliu, jei norite nutolinti; arba žalių rodyklių gretimoms žemėlapius.


METAR-TAF: